sensor_id;sensor_type;location;lat;lon;timestamp;P1;durP1;ratioP1;P2;durP2;ratioP2
42944;SDS011;28584;42.636;23.294;2023-06-22T00:01:15;8.77;;;7.80;;
42944;SDS011;28584;42.636;23.294;2023-06-22T00:03:41;8.23;;;7.50;;
42944;SDS011;28584;42.636;23.294;2023-06-22T00:06:06;6.70;;;6.10;;
42944;SDS011;28584;42.636;23.294;2023-06-22T00:08:32;7.65;;;6.95;;
42944;SDS011;28584;42.636;23.294;2023-06-22T00:10:57;7.78;;;7.07;;
42944;SDS011;28584;42.636;23.294;2023-06-22T00:13:22;9.18;;;8.35;;
42944;SDS011;28584;42.636;23.294;2023-06-22T00:15:48;10.02;;;9.15;;
42944;SDS011;28584;42.636;23.294;2023-06-22T00:18:13;16.00;;;14.95;;
42944;SDS011;28584;42.636;23.294;2023-06-22T00:20:39;28.73;;;27.20;;
42944;SDS011;28584;42.636;23.294;2023-06-22T00:23:05;18.13;;;16.88;;
42944;SDS011;28584;42.636;23.294;2023-06-22T00:25:39;18.58;;;17.40;;
42944;SDS011;28584;42.636;23.294;2023-06-22T00:28:05;23.77;;;22.40;;
42944;SDS011;28584;42.636;23.294;2023-06-22T00:30:31;10.65;;;9.85;;
42944;SDS011;28584;42.636;23.294;2023-06-22T00:32:57;23.60;;;22.05;;
42944;SDS011;28584;42.636;23.294;2023-06-22T00:35:23;36.53;;;34.65;;
42944;SDS011;28584;42.636;23.294;2023-06-22T00:37:53;43.58;;;41.40;;
42944;SDS011;28584;42.636;23.294;2023-06-22T00:40:25;45.38;;;43.08;;
42944;SDS011;28584;42.636;23.294;2023-06-22T00:42:51;31.15;;;29.45;;
42944;SDS011;28584;42.636;23.294;2023-06-22T00:45:16;14.15;;;12.45;;
42944;SDS011;28584;42.636;23.294;2023-06-22T00:47:42;10.00;;;7.72;;
42944;SDS011;28584;42.636;23.294;2023-06-22T00:50:08;8.77;;;7.90;;
42944;SDS011;28584;42.636;23.294;2023-06-22T00:52:43;7.80;;;7.10;;
42944;SDS011;28584;42.636;23.294;2023-06-22T00:55:09;7.63;;;6.97;;
42944;SDS011;28584;42.636;23.294;2023-06-22T00:57:34;9.65;;;8.20;;
42944;SDS011;28584;42.636;23.294;2023-06-22T01:00:02;6.80;;;6.10;;
42944;SDS011;28584;42.636;23.294;2023-06-22T01:02:31;7.05;;;6.38;;
42944;SDS011;28584;42.636;23.294;2023-06-22T01:04:57;7.40;;;6.70;;
42944;SDS011;28584;42.636;23.294;2023-06-22T01:12:42;9.63;;;8.70;;
42944;SDS011;28584;42.636;23.294;2023-06-22T01:15:30;11.85;;;10.90;;
42944;SDS011;28584;42.636;23.294;2023-06-22T01:18:08;11.18;;;10.25;;
42944;SDS011;28584;42.636;23.294;2023-06-22T01:20:36;28.88;;;27.17;;
42944;SDS011;28584;42.636;23.294;2023-06-22T01:25:57;33.08;;;31.00;;
42944;SDS011;28584;42.636;23.294;2023-06-22T01:28:35;45.50;;;43.28;;
42944;SDS011;28584;42.636;23.294;2023-06-22T01:31:07;38.05;;;35.92;;
42944;SDS011;28584;42.636;23.294;2023-06-22T01:33:37;35.25;;;33.22;;
42944;SDS011;28584;42.636;23.294;2023-06-22T01:36:05;34.05;;;31.92;;
42944;SDS011;28584;42.636;23.294;2023-06-22T01:38:31;30.13;;;28.33;;
42944;SDS011;28584;42.636;23.294;2023-06-22T01:40:58;40.45;;;38.17;;
42944;SDS011;28584;42.636;23.294;2023-06-22T01:43:26;65.63;;;62.05;;
42944;SDS011;28584;42.636;23.294;2023-06-22T01:45:53;78.28;;;74.47;;
42944;SDS011;28584;42.636;23.294;2023-06-22T01:48:19;151.93;;;144.60;;
42944;SDS011;28584;42.636;23.294;2023-06-22T01:50:45;238.20;;;225.88;;
42944;SDS011;28584;42.636;23.294;2023-06-22T01:53:10;273.45;;;258.83;;
42944;SDS011;28584;42.636;23.294;2023-06-22T01:55:36;274.38;;;259.58;;
42944;SDS011;28584;42.636;23.294;2023-06-22T01:58:01;425.75;;;399.38;;
42944;SDS011;28584;42.636;23.294;2023-06-22T02:00:27;500.38;;;465.80;;
42944;SDS011;28584;42.636;23.294;2023-06-22T02:02:59;579.45;;;537.55;;
42944;SDS011;28584;42.636;23.294;2023-06-22T02:05:34;648.03;;;600.72;;
42944;SDS011;28584;42.636;23.294;2023-06-22T02:08:08;573.65;;;532.78;;
42944;SDS011;28584;42.636;23.294;2023-06-22T02:10:37;518.45;;;482.65;;
42944;SDS011;28584;42.636;23.294;2023-06-22T02:13:07;543.15;;;504.40;;
42944;SDS011;28584;42.636;23.294;2023-06-22T02:15:34;570.65;;;528.50;;
42944;SDS011;28584;42.636;23.294;2023-06-22T02:18:00;579.13;;;536.67;;
42944;SDS011;28584;42.636;23.294;2023-06-22T02:20:26;588.80;;;544.63;;
42944;SDS011;28584;42.636;23.294;2023-06-22T02:22:51;600.00;;;554.60;;
42944;SDS011;28584;42.636;23.294;2023-06-22T02:25:17;629.63;;;582.58;;
42944;SDS011;28584;42.636;23.294;2023-06-22T02:27:42;509.85;;;474.50;;
42944;SDS011;28584;42.636;23.294;2023-06-22T02:30:08;376.58;;;354.80;;
42944;SDS011;28584;42.636;23.294;2023-06-22T02:32:37;425.90;;;399.27;;
42944;SDS011;28584;42.636;23.294;2023-06-22T02:35:02;420.70;;;394.60;;
42944;SDS011;28584;42.636;23.294;2023-06-22T02:37:30;480.40;;;448.58;;
42944;SDS011;28584;42.636;23.294;2023-06-22T02:39:56;531.20;;;494.05;;
42944;SDS011;28584;42.636;23.294;2023-06-22T02:42:21;599.42;;;556.00;;
42944;SDS011;28584;42.636;23.294;2023-06-22T02:44:47;466.48;;;436.65;;
42944;SDS011;28584;42.636;23.294;2023-06-22T02:47:12;391.67;;;368.67;;
42944;SDS011;28584;42.636;23.294;2023-06-22T02:49:38;345.73;;;326.10;;
42944;SDS011;28584;42.636;23.294;2023-06-22T02:52:03;372.92;;;350.55;;
42944;SDS011;28584;42.636;23.294;2023-06-22T02:54:29;289.67;;;273.65;;
42944;SDS011;28584;42.636;23.294;2023-06-22T02:56:54;264.35;;;250.32;;
42944;SDS011;28584;42.636;23.294;2023-06-22T02:59:20;279.00;;;264.13;;
42944;SDS011;28584;42.636;23.294;2023-06-22T03:01:48;208.38;;;197.88;;
42944;SDS011;28584;42.636;23.294;2023-06-22T03:04:17;67.47;;;64.15;;
42944;SDS011;28584;42.636;23.294;2023-06-22T03:06:43;68.95;;;65.53;;
42944;SDS011;28584;42.636;23.294;2023-06-22T03:09:08;63.22;;;60.13;;
42944;SDS011;28584;42.636;23.294;2023-06-22T03:11:33;81.07;;;76.95;;
42944;SDS011;28584;42.636;23.294;2023-06-22T03:14:02;74.70;;;71.00;;
42944;SDS011;28584;42.636;23.294;2023-06-22T03:16:27;164.57;;;156.52;;
42944;SDS011;28584;42.636;23.294;2023-06-22T03:18:53;143.02;;;136.18;;
42944;SDS011;28584;42.636;23.294;2023-06-22T03:21:19;53.55;;;50.75;;
42944;SDS011;28584;42.636;23.294;2023-06-22T03:23:48;14.85;;;13.73;;
42944;SDS011;28584;42.636;23.294;2023-06-22T03:26:16;13.40;;;12.35;;
42944;SDS011;28584;42.636;23.294;2023-06-22T03:28:42;15.82;;;14.52;;
42944;SDS011;28584;42.636;23.294;2023-06-22T03:31:07;27.55;;;25.88;;
42944;SDS011;28584;42.636;23.294;2023-06-22T03:33:33;14.45;;;13.30;;
42944;SDS011;28584;42.636;23.294;2023-06-22T03:35:58;14.02;;;12.70;;
42944;SDS011;28584;42.636;23.294;2023-06-22T03:38:24;15.18;;;13.98;;
42944;SDS011;28584;42.636;23.294;2023-06-22T03:40:49;12.20;;;11.00;;
42944;SDS011;28584;42.636;23.294;2023-06-22T03:43:15;12.40;;;11.25;;
42944;SDS011;28584;42.636;23.294;2023-06-22T03:45:40;11.88;;;10.88;;
42944;SDS011;28584;42.636;23.294;2023-06-22T03:48:05;23.77;;;22.13;;
42944;SDS011;28584;42.636;23.294;2023-06-22T03:50:31;37.53;;;35.17;;
42944;SDS011;28584;42.636;23.294;2023-06-22T03:52:56;39.72;;;36.50;;
42944;SDS011;28584;42.636;23.294;2023-06-22T03:55:22;32.03;;;29.88;;
42944;SDS011;28584;42.636;23.294;2023-06-22T03:57:47;18.77;;;17.02;;
42944;SDS011;28584;42.636;23.294;2023-06-22T04:00:13;34.40;;;32.03;;
42944;SDS011;28584;42.636;23.294;2023-06-22T04:02:40;35.67;;;33.47;;
42944;SDS011;28584;42.636;23.294;2023-06-22T04:05:06;40.65;;;37.97;;
42944;SDS011;28584;42.636;23.294;2023-06-22T04:07:31;23.15;;;21.52;;
42944;SDS011;28584;42.636;23.294;2023-06-22T04:09:57;17.90;;;16.50;;
42944;SDS011;28584;42.636;23.294;2023-06-22T04:12:22;12.45;;;11.18;;
42944;SDS011;28584;42.636;23.294;2023-06-22T04:14:48;11.02;;;9.98;;
42944;SDS011;28584;42.636;23.294;2023-06-22T04:17:13;10.85;;;9.75;;
42944;SDS011;28584;42.636;23.294;2023-06-22T04:19:40;11.13;;;10.02;;
42944;SDS011;28584;42.636;23.294;2023-06-22T04:22:05;11.63;;;10.48;;
42944;SDS011;28584;42.636;23.294;2023-06-22T04:24:32;11.48;;;10.38;;
42944;SDS011;28584;42.636;23.294;2023-06-22T04:26:58;11.13;;;10.02;;
42944;SDS011;28584;42.636;23.294;2023-06-22T04:29:28;16.17;;;11.93;;
42944;SDS011;28584;42.636;23.294;2023-06-22T04:31:55;17.73;;;10.43;;
42944;SDS011;28584;42.636;23.294;2023-06-22T04:34:24;14.63;;;10.88;;
42944;SDS011;28584;42.636;23.294;2023-06-22T04:36:52;13.25;;;10.57;;
42944;SDS011;28584;42.636;23.294;2023-06-22T04:39:18;20.42;;;11.18;;
42944;SDS011;28584;42.636;23.294;2023-06-22T04:41:43;14.57;;;12.73;;
42944;SDS011;28584;42.636;23.294;2023-06-22T04:46:35;14.23;;;10.32;;
42944;SDS011;28584;42.636;23.294;2023-06-22T04:49:06;14.48;;;10.40;;
42944;SDS011;28584;42.636;23.294;2023-06-22T04:51:43;12.55;;;9.35;;
42944;SDS011;28584;42.636;23.294;2023-06-22T04:54:09;14.82;;;10.35;;
42944;SDS011;28584;42.636;23.294;2023-06-22T04:56:34;16.42;;;9.93;;
42944;SDS011;28584;42.636;23.294;2023-06-22T04:59:00;15.13;;;10.80;;
42944;SDS011;28584;42.636;23.294;2023-06-22T05:01:28;16.67;;;10.85;;
42944;SDS011;28584;42.636;23.294;2023-06-22T05:03:53;13.55;;;9.77;;
42944;SDS011;28584;42.636;23.294;2023-06-22T05:06:23;12.88;;;10.43;;
42944;SDS011;28584;42.636;23.294;2023-06-22T05:08:53;10.73;;;9.27;;
42944;SDS011;28584;42.636;23.294;2023-06-22T05:11:25;15.90;;;11.10;;
42944;SDS011;28584;42.636;23.294;2023-06-22T05:13:52;16.67;;;11.05;;
42944;SDS011;28584;42.636;23.294;2023-06-22T05:16:18;21.20;;;11.45;;
42944;SDS011;28584;42.636;23.294;2023-06-22T05:18:48;16.02;;;11.63;;
42944;SDS011;28584;42.636;23.294;2023-06-22T05:21:14;17.88;;;11.30;;
42944;SDS011;28584;42.636;23.294;2023-06-22T05:23:40;15.38;;;12.25;;
42944;SDS011;28584;42.636;23.294;2023-06-22T05:26:05;16.90;;;12.70;;
42944;SDS011;28584;42.636;23.294;2023-06-22T05:28:30;19.58;;;12.40;;
42944;SDS011;28584;42.636;23.294;2023-06-22T05:30:56;15.35;;;11.07;;
42944;SDS011;28584;42.636;23.294;2023-06-22T05:33:21;21.20;;;11.48;;
42944;SDS011;28584;42.636;23.294;2023-06-22T05:35:46;17.45;;;10.88;;
42944;SDS011;28584;42.636;23.294;2023-06-22T05:38:12;12.27;;;11.00;;
42944;SDS011;28584;42.636;23.294;2023-06-22T05:40:37;13.98;;;10.68;;
42944;SDS011;28584;42.636;23.294;2023-06-22T05:43:02;18.15;;;11.50;;
42944;SDS011;28584;42.636;23.294;2023-06-22T05:45:28;15.25;;;12.32;;
42944;SDS011;28584;42.636;23.294;2023-06-22T05:47:53;17.88;;;13.23;;
42944;SDS011;28584;42.636;23.294;2023-06-22T05:50:18;21.55;;;14.43;;
42944;SDS011;28584;42.636;23.294;2023-06-22T05:52:44;15.55;;;13.07;;
42944;SDS011;28584;42.636;23.294;2023-06-22T05:55:09;18.23;;;13.27;;
42944;SDS011;28584;42.636;23.294;2023-06-22T05:57:35;17.70;;;12.85;;
42944;SDS011;28584;42.636;23.294;2023-06-22T06:00:00;16.33;;;13.30;;
42944;SDS011;28584;42.636;23.294;2023-06-22T06:02:25;14.23;;;12.23;;
42944;SDS011;28584;42.636;23.294;2023-06-22T06:04:51;16.10;;;12.38;;
42944;SDS011;28584;42.636;23.294;2023-06-22T06:07:17;14.40;;;12.88;;
42944;SDS011;28584;42.636;23.294;2023-06-22T06:09:43;16.80;;;11.55;;
42944;SDS011;28584;42.636;23.294;2023-06-22T06:12:08;20.63;;;11.57;;
42944;SDS011;28584;42.636;23.294;2023-06-22T06:14:34;16.08;;;11.65;;
42944;SDS011;28584;42.636;23.294;2023-06-22T06:16:59;12.85;;;10.43;;
42944;SDS011;28584;42.636;23.294;2023-06-22T06:19:24;15.40;;;11.27;;
42944;SDS011;28584;42.636;23.294;2023-06-22T06:21:50;15.48;;;10.60;;
42944;SDS011;28584;42.636;23.294;2023-06-22T06:24:16;14.00;;;10.07;;
42944;SDS011;28584;42.636;23.294;2023-06-22T06:26:41;13.20;;;10.82;;
42944;SDS011;28584;42.636;23.294;2023-06-22T06:29:06;16.25;;;11.07;;
42944;SDS011;28584;42.636;23.294;2023-06-22T06:31:32;17.92;;;11.75;;
42944;SDS011;28584;42.636;23.294;2023-06-22T06:33:58;14.63;;;11.45;;
42944;SDS011;28584;42.636;23.294;2023-06-22T06:36:23;23.58;;;12.15;;
42944;SDS011;28584;42.636;23.294;2023-06-22T06:38:48;14.23;;;11.38;;
42944;SDS011;28584;42.636;23.294;2023-06-22T06:41:14;14.35;;;12.00;;
42944;SDS011;28584;42.636;23.294;2023-06-22T06:43:40;15.02;;;10.57;;
42944;SDS011;28584;42.636;23.294;2023-06-22T06:46:08;18.73;;;10.63;;
42944;SDS011;28584;42.636;23.294;2023-06-22T06:48:33;12.43;;;10.80;;
42944;SDS011;28584;42.636;23.294;2023-06-22T06:50:59;11.10;;;10.00;;
42944;SDS011;28584;42.636;23.294;2023-06-22T06:53:24;15.00;;;9.88;;
42944;SDS011;28584;42.636;23.294;2023-06-22T06:55:49;16.35;;;10.60;;
42944;SDS011;28584;42.636;23.294;2023-06-22T06:58:15;13.32;;;10.43;;
42944;SDS011;28584;42.636;23.294;2023-06-22T07:00:41;15.90;;;9.65;;
42944;SDS011;28584;42.636;23.294;2023-06-22T07:03:06;15.20;;;9.02;;
42944;SDS011;28584;42.636;23.294;2023-06-22T07:05:32;14.82;;;10.52;;
42944;SDS011;28584;42.636;23.294;2023-06-22T07:07:57;16.63;;;10.45;;
42944;SDS011;28584;42.636;23.294;2023-06-22T07:10:23;15.38;;;10.65;;
42944;SDS011;28584;42.636;23.294;2023-06-22T07:12:48;15.65;;;11.13;;
42944;SDS011;28584;42.636;23.294;2023-06-22T07:15:13;12.65;;;11.00;;
42944;SDS011;28584;42.636;23.294;2023-06-22T07:17:39;12.10;;;10.75;;
42944;SDS011;28584;42.636;23.294;2023-06-22T07:20:07;14.73;;;12.15;;
42944;SDS011;28584;42.636;23.294;2023-06-22T07:22:40;14.20;;;11.25;;
42944;SDS011;28584;42.636;23.294;2023-06-22T07:25:07;16.75;;;11.20;;
42944;SDS011;28584;42.636;23.294;2023-06-22T07:27:42;16.10;;;13.27;;
42944;SDS011;28584;42.636;23.294;2023-06-22T07:30:10;18.42;;;12.95;;
42944;SDS011;28584;42.636;23.294;2023-06-22T07:32:36;15.30;;;13.02;;
42944;SDS011;28584;42.636;23.294;2023-06-22T07:35:02;14.25;;;11.95;;
42944;SDS011;28584;42.636;23.294;2023-06-22T07:37:29;14.77;;;11.77;;
42944;SDS011;28584;42.636;23.294;2023-06-22T07:39:54;13.68;;;12.32;;
42944;SDS011;28584;42.636;23.294;2023-06-22T07:42:26;14.85;;;11.90;;
42944;SDS011;28584;42.636;23.294;2023-06-22T07:44:52;17.08;;;12.23;;
42944;SDS011;28584;42.636;23.294;2023-06-22T07:47:18;16.88;;;12.70;;
42944;SDS011;28584;42.636;23.294;2023-06-22T07:49:44;12.52;;;10.93;;
42944;SDS011;28584;42.636;23.294;2023-06-22T07:52:10;13.45;;;12.02;;
42944;SDS011;28584;42.636;23.294;2023-06-22T07:54:36;18.35;;;11.20;;
42944;SDS011;28584;42.636;23.294;2023-06-22T07:57:01;15.85;;;11.93;;
42944;SDS011;28584;42.636;23.294;2023-06-22T07:59:27;13.65;;;12.02;;
42944;SDS011;28584;42.636;23.294;2023-06-22T08:01:52;14.18;;;12.10;;
42944;SDS011;28584;42.636;23.294;2023-06-22T08:04:17;13.40;;;11.20;;
42944;SDS011;28584;42.636;23.294;2023-06-22T08:06:43;15.35;;;11.52;;
42944;SDS011;28584;42.636;23.294;2023-06-22T08:09:08;14.88;;;11.38;;
42944;SDS011;28584;42.636;23.294;2023-06-22T08:11:34;13.38;;;11.95;;
42944;SDS011;28584;42.636;23.294;2023-06-22T08:13:59;12.73;;;11.40;;
42944;SDS011;28584;42.636;23.294;2023-06-22T08:16:24;14.35;;;12.18;;
42944;SDS011;28584;42.636;23.294;2023-06-22T08:18:50;15.40;;;11.55;;
42944;SDS011;28584;42.636;23.294;2023-06-22T08:21:15;12.13;;;10.82;;
42944;SDS011;28584;42.636;23.294;2023-06-22T08:23:40;13.57;;;11.70;;
42944;SDS011;28584;42.636;23.294;2023-06-22T08:26:06;12.90;;;11.38;;
42944;SDS011;28584;42.636;23.294;2023-06-22T08:28:31;13.48;;;11.13;;
42944;SDS011;28584;42.636;23.294;2023-06-22T08:30:57;12.70;;;11.48;;
42944;SDS011;28584;42.636;23.294;2023-06-22T08:33:23;11.70;;;10.60;;
42944;SDS011;28584;42.636;23.294;2023-06-22T08:35:53;13.30;;;11.60;;
42944;SDS011;28584;42.636;23.294;2023-06-22T08:38:20;11.65;;;10.18;;
42944;SDS011;28584;42.636;23.294;2023-06-22T08:40:45;11.27;;;10.18;;
42944;SDS011;28584;42.636;23.294;2023-06-22T08:43:10;11.60;;;10.52;;
42944;SDS011;28584;42.636;23.294;2023-06-22T08:45:36;13.05;;;10.88;;
42944;SDS011;28584;42.636;23.294;2023-06-22T08:48:01;13.57;;;11.20;;
42944;SDS011;28584;42.636;23.294;2023-06-22T08:50:27;12.55;;;11.05;;
42944;SDS011;28584;42.636;23.294;2023-06-22T08:52:52;12.38;;;11.07;;
42944;SDS011;28584;42.636;23.294;2023-06-22T08:55:18;11.63;;;10.48;;
42944;SDS011;28584;42.636;23.294;2023-06-22T08:57:43;11.50;;;10.02;;
42944;SDS011;28584;42.636;23.294;2023-06-22T09:00:09;13.20;;;10.38;;
42944;SDS011;28584;42.636;23.294;2023-06-22T09:02:44;12.05;;;9.23;;
42944;SDS011;28584;42.636;23.294;2023-06-22T09:05:11;10.95;;;9.65;;
42944;SDS011;28584;42.636;23.294;2023-06-22T09:07:36;12.05;;;8.70;;
42944;SDS011;28584;42.636;23.294;2023-06-22T09:10:02;11.73;;;9.65;;
42944;SDS011;28584;42.636;23.294;2023-06-22T09:12:29;10.35;;;9.45;;
42944;SDS011;28584;42.636;23.294;2023-06-22T09:14:55;9.45;;;8.55;;
42944;SDS011;28584;42.636;23.294;2023-06-22T09:17:21;9.18;;;8.38;;
42944;SDS011;28584;42.636;23.294;2023-06-22T09:19:47;9.60;;;8.70;;
42944;SDS011;28584;42.636;23.294;2023-06-22T09:22:13;9.15;;;8.35;;
42944;SDS011;28584;42.636;23.294;2023-06-22T09:24:39;10.10;;;9.20;;
42944;SDS011;28584;42.636;23.294;2023-06-22T09:27:04;10.75;;;9.00;;
42944;SDS011;28584;42.636;23.294;2023-06-22T09:29:30;9.70;;;8.68;;
42944;SDS011;28584;42.636;23.294;2023-06-22T09:31:58;10.93;;;10.02;;
42944;SDS011;28584;42.636;23.294;2023-06-22T09:34:24;9.90;;;8.90;;
42944;SDS011;28584;42.636;23.294;2023-06-22T09:36:49;19.92;;;9.05;;
42944;SDS011;28584;42.636;23.294;2023-06-22T09:39:15;9.98;;;8.82;;
42944;SDS011;28584;42.636;23.294;2023-06-22T09:41:40;10.65;;;9.30;;
42944;SDS011;28584;42.636;23.294;2023-06-22T09:44:05;8.68;;;7.78;;
42944;SDS011;28584;42.636;23.294;2023-06-22T09:46:31;9.55;;;8.43;;
42944;SDS011;28584;42.636;23.294;2023-06-22T09:48:56;11.23;;;8.73;;
42944;SDS011;28584;42.636;23.294;2023-06-22T09:51:22;9.73;;;8.73;;
42944;SDS011;28584;42.636;23.294;2023-06-22T09:53:49;9.40;;;8.60;;
42944;SDS011;28584;42.636;23.294;2023-06-22T09:56:15;9.32;;;8.43;;
42944;SDS011;28584;42.636;23.294;2023-06-22T09:58:44;9.18;;;8.30;;
42944;SDS011;28584;42.636;23.294;2023-06-22T10:01:11;8.80;;;8.10;;
42944;SDS011;28584;42.636;23.294;2023-06-22T10:03:36;9.38;;;8.52;;
42944;SDS011;28584;42.636;23.294;2023-06-22T10:06:02;11.20;;;10.07;;
42944;SDS011;28584;42.636;23.294;2023-06-22T10:08:28;10.25;;;8.90;;
42944;SDS011;28584;42.636;23.294;2023-06-22T10:10:53;9.05;;;8.10;;
42944;SDS011;28584;42.636;23.294;2023-06-22T10:13:19;8.10;;;7.28;;
42944;SDS011;28584;42.636;23.294;2023-06-22T10:15:45;9.48;;;8.48;;
42944;SDS011;28584;42.636;23.294;2023-06-22T10:18:16;8.65;;;7.75;;
42944;SDS011;28584;42.636;23.294;2023-06-22T10:20:42;9.15;;;8.15;;
42944;SDS011;28584;42.636;23.294;2023-06-22T10:23:07;10.02;;;9.05;;
42944;SDS011;28584;42.636;23.294;2023-06-22T10:25:33;8.52;;;7.82;;
42944;SDS011;28584;42.636;23.294;2023-06-22T10:27:58;9.60;;;8.70;;
42944;SDS011;28584;42.636;23.294;2023-06-22T10:30:24;8.95;;;8.05;;
42944;SDS011;28584;42.636;23.294;2023-06-22T10:32:49;9.07;;;8.27;;
42944;SDS011;28584;42.636;23.294;2023-06-22T10:35:14;9.40;;;8.50;;
42944;SDS011;28584;42.636;23.294;2023-06-22T10:37:42;8.85;;;8.07;;
42944;SDS011;28584;42.636;23.294;2023-06-22T10:40:08;9.65;;;8.93;;
42944;SDS011;28584;42.636;23.294;2023-06-22T10:42:34;9.32;;;8.40;;
42944;SDS011;28584;42.636;23.294;2023-06-22T10:44:59;8.88;;;8.15;;
42944;SDS011;28584;42.636;23.294;2023-06-22T10:47:25;10.35;;;8.00;;
42944;SDS011;28584;42.636;23.294;2023-06-22T10:49:50;9.80;;;8.90;;
42944;SDS011;28584;42.636;23.294;2023-06-22T10:52:16;10.25;;;9.32;;
42944;SDS011;28584;42.636;23.294;2023-06-22T10:54:41;9.40;;;8.43;;
42944;SDS011;28584;42.636;23.294;2023-06-22T10:57:06;10.48;;;8.57;;
42944;SDS011;28584;42.636;23.294;2023-06-22T10:59:32;9.40;;;8.55;;
42944;SDS011;28584;42.636;23.294;2023-06-22T11:01:58;9.65;;;8.73;;
42944;SDS011;28584;42.636;23.294;2023-06-22T11:04:23;9.40;;;8.45;;
42944;SDS011;28584;42.636;23.294;2023-06-22T11:06:49;9.18;;;8.10;;
42944;SDS011;28584;42.636;23.294;2023-06-22T11:09:15;8.32;;;7.53;;
42944;SDS011;28584;42.636;23.294;2023-06-22T11:11:45;8.50;;;7.70;;
42944;SDS011;28584;42.636;23.294;2023-06-22T11:14:11;8.75;;;7.95;;
42944;SDS011;28584;42.636;23.294;2023-06-22T11:16:36;9.18;;;8.30;;
42944;SDS011;28584;42.636;23.294;2023-06-22T11:19:02;8.20;;;7.40;;
42944;SDS011;28584;42.636;23.294;2023-06-22T11:21:28;10.70;;;8.05;;
42944;SDS011;28584;42.636;23.294;2023-06-22T11:23:53;8.27;;;7.57;;
42944;SDS011;28584;42.636;23.294;2023-06-22T11:26:19;9.70;;;8.75;;
42944;SDS011;28584;42.636;23.294;2023-06-22T11:28:46;9.20;;;8.27;;
42944;SDS011;28584;42.636;23.294;2023-06-22T11:31:11;9.55;;;8.48;;
42944;SDS011;28584;42.636;23.294;2023-06-22T11:33:37;9.20;;;8.38;;
42944;SDS011;28584;42.636;23.294;2023-06-22T11:36:02;10.05;;;8.30;;
42944;SDS011;28584;42.636;23.294;2023-06-22T11:38:28;8.77;;;8.07;;
42944;SDS011;28584;42.636;23.294;2023-06-22T11:40:53;13.73;;;8.60;;
42944;SDS011;28584;42.636;23.294;2023-06-22T11:43:19;9.48;;;8.45;;
42944;SDS011;28584;42.636;23.294;2023-06-22T11:45:44;8.45;;;7.72;;
42944;SDS011;28584;42.636;23.294;2023-06-22T11:48:10;8.77;;;7.88;;
42944;SDS011;28584;42.636;23.294;2023-06-22T11:50:35;9.85;;;8.85;;
42944;SDS011;28584;42.636;23.294;2023-06-22T11:53:01;11.93;;;8.93;;
42944;SDS011;28584;42.636;23.294;2023-06-22T11:55:28;10.00;;;9.02;;
42944;SDS011;28584;42.636;23.294;2023-06-22T11:57:54;11.23;;;9.55;;
42944;SDS011;28584;42.636;23.294;2023-06-22T12:00:21;11.13;;;8.88;;
42944;SDS011;28584;42.636;23.294;2023-06-22T12:02:49;10.00;;;8.32;;
42944;SDS011;28584;42.636;23.294;2023-06-22T12:05:18;9.55;;;8.75;;
42944;SDS011;28584;42.636;23.294;2023-06-22T12:07:46;11.13;;;8.60;;
42944;SDS011;28584;42.636;23.294;2023-06-22T12:10:11;10.85;;;8.82;;
42944;SDS011;28584;42.636;23.294;2023-06-22T12:12:36;9.88;;;8.95;;
42944;SDS011;28584;42.636;23.294;2023-06-22T12:15:02;10.63;;;9.40;;
42944;SDS011;28584;42.636;23.294;2023-06-22T12:17:29;11.45;;;9.25;;
42944;SDS011;28584;42.636;23.294;2023-06-22T12:19:55;10.18;;;9.20;;
42944;SDS011;28584;42.636;23.294;2023-06-22T12:22:20;9.93;;;8.93;;
42944;SDS011;28584;42.636;23.294;2023-06-22T12:24:45;14.15;;;9.48;;
42944;SDS011;28584;42.636;23.294;2023-06-22T12:27:11;9.45;;;8.23;;
42944;SDS011;28584;42.636;23.294;2023-06-22T12:29:36;10.50;;;9.50;;
42944;SDS011;28584;42.636;23.294;2023-06-22T12:32:02;12.20;;;10.27;;
42944;SDS011;28584;42.636;23.294;2023-06-22T12:34:27;21.55;;;20.05;;
42944;SDS011;28584;42.636;23.294;2023-06-22T12:36:53;436.27;;;407.45;;
42944;SDS011;28584;42.636;23.294;2023-06-22T12:39:19;734.97;;;676.35;;
42944;SDS011;28584;42.636;23.294;2023-06-22T12:41:45;832.88;;;758.92;;
42944;SDS011;28584;42.636;23.294;2023-06-22T12:44:10;816.33;;;744.53;;
42944;SDS011;28584;42.636;23.294;2023-06-22T12:46:35;818.58;;;751.53;;
42944;SDS011;28584;42.636;23.294;2023-06-22T12:49:03;876.63;;;798.05;;
42944;SDS011;28584;42.636;23.294;2023-06-22T12:51:29;951.70;;;849.35;;
42944;SDS011;28584;42.636;23.294;2023-06-22T12:53:56;950.63;;;849.50;;
42944;SDS011;28584;42.636;23.294;2023-06-22T12:56:21;837.35;;;762.95;;
42944;SDS011;28584;42.636;23.294;2023-06-22T12:58:47;930.47;;;840.78;;
42944;SDS011;28584;42.636;23.294;2023-06-22T13:01:12;857.60;;;775.42;;
42944;SDS011;28584;42.636;23.294;2023-06-22T13:03:38;838.47;;;767.83;;
42944;SDS011;28584;42.636;23.294;2023-06-22T13:06:03;785.10;;;720.83;;
42944;SDS011;28584;42.636;23.294;2023-06-22T13:08:29;599.55;;;558.75;;
42944;SDS011;28584;42.636;23.294;2023-06-22T13:10:54;632.30;;;583.70;;
42944;SDS011;28584;42.636;23.294;2023-06-22T13:13:23;586.30;;;547.60;;
42944;SDS011;28584;42.636;23.294;2023-06-22T13:15:49;225.82;;;213.57;;
42944;SDS011;28584;42.636;23.294;2023-06-22T13:18:15;128.30;;;121.80;;
42944;SDS011;28584;42.636;23.294;2023-06-22T13:20:40;48.90;;;46.00;;
42944;SDS011;28584;42.636;23.294;2023-06-22T13:23:06;24.77;;;22.98;;
42944;SDS011;28584;42.636;23.294;2023-06-22T13:25:31;17.23;;;15.90;;
42944;SDS011;28584;42.636;23.294;2023-06-22T13:27:57;35.58;;;33.08;;
42944;SDS011;28584;42.636;23.294;2023-06-22T13:30:22;15.18;;;13.85;;
42944;SDS011;28584;42.636;23.294;2023-06-22T13:32:47;14.18;;;12.65;;
42944;SDS011;28584;42.636;23.294;2023-06-22T13:35:13;16.45;;;14.88;;
42944;SDS011;28584;42.636;23.294;2023-06-22T13:37:39;12.05;;;10.02;;
42944;SDS011;28584;42.636;23.294;2023-06-22T13:40:08;24.13;;;22.65;;
42944;SDS011;28584;42.636;23.294;2023-06-22T13:42:34;159.15;;;151.25;;
42944;SDS011;28584;42.636;23.294;2023-06-22T13:44:59;385.77;;;362.92;;
42944;SDS011;28584;42.636;23.294;2023-06-22T13:47:24;741.70;;;681.75;;
42944;SDS011;28584;42.636;23.294;2023-06-22T13:49:50;863.45;;;792.35;;
42944;SDS011;28584;42.636;23.294;2023-06-22T13:52:15;876.97;;;799.78;;
42944;SDS011;28584;42.636;23.294;2023-06-22T13:54:41;823.15;;;754.72;;
42944;SDS011;28584;42.636;23.294;2023-06-22T13:57:06;808.10;;;742.33;;
42944;SDS011;28584;42.636;23.294;2023-06-22T13:59:32;863.03;;;791.65;;
42944;SDS011;28584;42.636;23.294;2023-06-22T14:01:57;856.28;;;784.17;;
42944;SDS011;28584;42.636;23.294;2023-06-22T14:04:23;849.90;;;780.33;;
42944;SDS011;28584;42.636;23.294;2023-06-22T14:06:49;862.55;;;791.47;;
42944;SDS011;28584;42.636;23.294;2023-06-22T14:09:14;826.75;;;760.85;;
42944;SDS011;28584;42.636;23.294;2023-06-22T14:11:39;807.55;;;744.45;;
42944;SDS011;28584;42.636;23.294;2023-06-22T14:14:05;722.25;;;669.53;;
42944;SDS011;28584;42.636;23.294;2023-06-22T14:16:30;647.72;;;601.78;;